sensor_id;sensor_type;location;lat;lon;timestamp;P1;durP1;ratioP1;P2;durP2;ratioP2
10890;SDS011;5498;50.928;11.598;2023-01-19T00:00:31;542.13;;;82.53;;
10890;SDS011;5498;50.928;11.598;2023-01-19T00:03:33;539.03;;;80.67;;
10890;SDS011;5498;50.928;11.598;2023-01-19T00:06:35;540.80;;;81.90;;
10890;SDS011;5498;50.928;11.598;2023-01-19T00:09:39;545.73;;;83.60;;
10890;SDS011;5498;50.928;11.598;2023-01-19T00:12:40;544.60;;;80.70;;
10890;SDS011;5498;50.928;11.598;2023-01-19T00:15:42;544.87;;;78.57;;
10890;SDS011;5498;50.928;11.598;2023-01-19T00:18:44;545.77;;;81.07;;
10890;SDS011;5498;50.928;11.598;2023-01-19T00:21:46;545.20;;;80.03;;
10890;SDS011;5498;50.928;11.598;2023-01-19T00:24:49;542.40;;;79.90;;
10890;SDS011;5498;50.928;11.598;2023-01-19T00:27:51;547.43;;;80.20;;
10890;SDS011;5498;50.928;11.598;2023-01-19T00:30:53;547.13;;;79.33;;
10890;SDS011;5498;50.928;11.598;2023-01-19T00:33:56;545.93;;;81.30;;
10890;SDS011;5498;50.928;11.598;2023-01-19T00:36:58;543.00;;;78.37;;
10890;SDS011;5498;50.928;11.598;2023-01-19T00:40:03;543.43;;;77.00;;
10890;SDS011;5498;50.928;11.598;2023-01-19T00:43:07;542.13;;;77.80;;
10890;SDS011;5498;50.928;11.598;2023-01-19T00:46:09;540.23;;;78.83;;
10890;SDS011;5498;50.928;11.598;2023-01-19T00:49:11;544.43;;;80.70;;
10890;SDS011;5498;50.928;11.598;2023-01-19T00:52:13;542.60;;;79.37;;
10890;SDS011;5498;50.928;11.598;2023-01-19T00:55:16;540.77;;;77.57;;
10890;SDS011;5498;50.928;11.598;2023-01-19T00:58:18;543.77;;;77.80;;
10890;SDS011;5498;50.928;11.598;2023-01-19T01:01:21;541.37;;;77.97;;
10890;SDS011;5498;50.928;11.598;2023-01-19T01:04:23;538.27;;;76.07;;
10890;SDS011;5498;50.928;11.598;2023-01-19T01:07:25;542.03;;;78.53;;
10890;SDS011;5498;50.928;11.598;2023-01-19T01:10:28;547.07;;;79.97;;
10890;SDS011;5498;50.928;11.598;2023-01-19T01:13:30;552.03;;;81.17;;
10890;SDS011;5498;50.928;11.598;2023-01-19T01:16:32;552.93;;;79.67;;
10890;SDS011;5498;50.928;11.598;2023-01-19T01:19:34;556.23;;;81.73;;
10890;SDS011;5498;50.928;11.598;2023-01-19T01:22:36;551.67;;;81.17;;
10890;SDS011;5498;50.928;11.598;2023-01-19T01:25:39;552.43;;;80.50;;
10890;SDS011;5498;50.928;11.598;2023-01-19T01:28:41;552.37;;;79.03;;
10890;SDS011;5498;50.928;11.598;2023-01-19T01:31:43;554.47;;;80.13;;
10890;SDS011;5498;50.928;11.598;2023-01-19T01:34:45;550.47;;;80.10;;
10890;SDS011;5498;50.928;11.598;2023-01-19T01:37:47;554.10;;;80.60;;
10890;SDS011;5498;50.928;11.598;2023-01-19T01:40:50;552.80;;;80.23;;
10890;SDS011;5498;50.928;11.598;2023-01-19T01:43:53;550.00;;;78.70;;
10890;SDS011;5498;50.928;11.598;2023-01-19T01:46:57;554.20;;;81.57;;
10890;SDS011;5498;50.928;11.598;2023-01-19T01:50:01;553.17;;;80.73;;
10890;SDS011;5498;50.928;11.598;2023-01-19T01:53:09;551.67;;;79.33;;
10890;SDS011;5498;50.928;11.598;2023-01-19T01:56:16;551.27;;;80.93;;
10890;SDS011;5498;50.928;11.598;2023-01-19T01:59:24;549.63;;;80.73;;
10890;SDS011;5498;50.928;11.598;2023-01-19T02:02:34;551.73;;;79.03;;
10890;SDS011;5498;50.928;11.598;2023-01-19T02:05:51;552.10;;;77.97;;
10890;SDS011;5498;50.928;11.598;2023-01-19T02:08:57;552.30;;;79.53;;
10890;SDS011;5498;50.928;11.598;2023-01-19T02:12:24;551.80;;;77.60;;
10890;SDS011;5498;50.928;11.598;2023-01-19T02:15:43;549.27;;;77.90;;
10890;SDS011;5498;50.928;11.598;2023-01-19T02:18:45;553.80;;;77.90;;
10890;SDS011;5498;50.928;11.598;2023-01-19T02:21:49;550.90;;;79.33;;
10890;SDS011;5498;50.928;11.598;2023-01-19T02:24:56;558.37;;;79.37;;
10890;SDS011;5498;50.928;11.598;2023-01-19T02:27:58;550.07;;;78.60;;
10890;SDS011;5498;50.928;11.598;2023-01-19T02:31:00;548.70;;;77.23;;
10890;SDS011;5498;50.928;11.598;2023-01-19T02:34:02;554.50;;;79.90;;
10890;SDS011;5498;50.928;11.598;2023-01-19T02:37:07;549.93;;;78.73;;
10890;SDS011;5498;50.928;11.598;2023-01-19T02:40:14;552.90;;;77.87;;
10890;SDS011;5498;50.928;11.598;2023-01-19T02:43:19;546.37;;;77.80;;
10890;SDS011;5498;50.928;11.598;2023-01-19T02:46:23;551.50;;;79.83;;
10890;SDS011;5498;50.928;11.598;2023-01-19T02:49:26;552.47;;;78.73;;
10890;SDS011;5498;50.928;11.598;2023-01-19T02:52:29;550.90;;;79.87;;
10890;SDS011;5498;50.928;11.598;2023-01-19T02:55:32;549.27;;;78.87;;
10890;SDS011;5498;50.928;11.598;2023-01-19T02:58:35;553.73;;;79.87;;
10890;SDS011;5498;50.928;11.598;2023-01-19T03:01:50;554.77;;;78.67;;
10890;SDS011;5498;50.928;11.598;2023-01-19T03:05:08;552.03;;;77.73;;
10890;SDS011;5498;50.928;11.598;2023-01-19T03:08:30;554.67;;;78.83;;
10890;SDS011;5498;50.928;11.598;2023-01-19T03:11:45;550.63;;;77.20;;
10890;SDS011;5498;50.928;11.598;2023-01-19T03:14:56;551.97;;;78.90;;
10890;SDS011;5498;50.928;11.598;2023-01-19T03:18:04;549.13;;;77.10;;
10890;SDS011;5498;50.928;11.598;2023-01-19T03:21:09;546.73;;;76.37;;
10890;SDS011;5498;50.928;11.598;2023-01-19T03:24:13;549.77;;;76.13;;
10890;SDS011;5498;50.928;11.598;2023-01-19T03:27:20;545.87;;;76.07;;
10890;SDS011;5498;50.928;11.598;2023-01-19T03:30:27;546.23;;;76.53;;
10890;SDS011;5498;50.928;11.598;2023-01-19T03:33:33;544.00;;;76.13;;
10890;SDS011;5498;50.928;11.598;2023-01-19T03:36:39;547.83;;;78.10;;
10890;SDS011;5498;50.928;11.598;2023-01-19T03:39:45;549.53;;;75.70;;
10890;SDS011;5498;50.928;11.598;2023-01-19T03:42:48;544.73;;;74.90;;
10890;SDS011;5498;50.928;11.598;2023-01-19T03:45:50;546.83;;;74.47;;
10890;SDS011;5498;50.928;11.598;2023-01-19T03:48:55;545.10;;;74.83;;
10890;SDS011;5498;50.928;11.598;2023-01-19T03:51:57;544.13;;;73.40;;
10890;SDS011;5498;50.928;11.598;2023-01-19T03:55:00;547.87;;;75.80;;
10890;SDS011;5498;50.928;11.598;2023-01-19T03:58:05;543.40;;;73.23;;
10890;SDS011;5498;50.928;11.598;2023-01-19T04:01:07;543.83;;;74.23;;
10890;SDS011;5498;50.928;11.598;2023-01-19T04:04:09;549.17;;;73.43;;
10890;SDS011;5498;50.928;11.598;2023-01-19T04:07:12;545.73;;;74.33;;
10890;SDS011;5498;50.928;11.598;2023-01-19T04:10:14;547.23;;;76.73;;
10890;SDS011;5498;50.928;11.598;2023-01-19T04:13:18;540.63;;;72.97;;
10890;SDS011;5498;50.928;11.598;2023-01-19T04:16:20;542.60;;;72.90;;
10890;SDS011;5498;50.928;11.598;2023-01-19T04:19:23;542.97;;;74.80;;
10890;SDS011;5498;50.928;11.598;2023-01-19T04:22:25;549.37;;;74.43;;
10890;SDS011;5498;50.928;11.598;2023-01-19T04:25:27;545.87;;;75.23;;
10890;SDS011;5498;50.928;11.598;2023-01-19T04:28:30;545.37;;;74.47;;
10890;SDS011;5498;50.928;11.598;2023-01-19T04:31:33;544.20;;;74.53;;
10890;SDS011;5498;50.928;11.598;2023-01-19T04:34:35;544.07;;;74.47;;
10890;SDS011;5498;50.928;11.598;2023-01-19T04:37:37;542.80;;;73.97;;
10890;SDS011;5498;50.928;11.598;2023-01-19T04:40:39;540.33;;;73.77;;
10890;SDS011;5498;50.928;11.598;2023-01-19T04:43:42;542.17;;;72.53;;
10890;SDS011;5498;50.928;11.598;2023-01-19T04:46:47;542.83;;;74.53;;
10890;SDS011;5498;50.928;11.598;2023-01-19T04:49:50;545.10;;;74.00;;
10890;SDS011;5498;50.928;11.598;2023-01-19T04:52:52;543.70;;;72.37;;
10890;SDS011;5498;50.928;11.598;2023-01-19T04:55:54;547.50;;;73.40;;
10890;SDS011;5498;50.928;11.598;2023-01-19T04:58:57;543.00;;;71.47;;
10890;SDS011;5498;50.928;11.598;2023-01-19T05:01:59;545.03;;;72.60;;
10890;SDS011;5498;50.928;11.598;2023-01-19T05:05:02;552.40;;;72.10;;
10890;SDS011;5498;50.928;11.598;2023-01-19T05:08:04;546.30;;;71.87;;
10890;SDS011;5498;50.928;11.598;2023-01-19T05:11:06;546.87;;;72.43;;
10890;SDS011;5498;50.928;11.598;2023-01-19T05:14:09;548.33;;;73.07;;
10890;SDS011;5498;50.928;11.598;2023-01-19T05:17:11;543.47;;;71.23;;
10890;SDS011;5498;50.928;11.598;2023-01-19T05:20:13;545.40;;;74.77;;
10890;SDS011;5498;50.928;11.598;2023-01-19T05:23:16;547.67;;;73.93;;
10890;SDS011;5498;50.928;11.598;2023-01-19T05:26:18;547.07;;;73.57;;
10890;SDS011;5498;50.928;11.598;2023-01-19T05:29:21;544.03;;;73.63;;
10890;SDS011;5498;50.928;11.598;2023-01-19T05:32:23;548.67;;;74.83;;
10890;SDS011;5498;50.928;11.598;2023-01-19T05:35:25;542.50;;;74.20;;
10890;SDS011;5498;50.928;11.598;2023-01-19T05:38:26;542.87;;;76.13;;
10890;SDS011;5498;50.928;11.598;2023-01-19T05:41:28;538.67;;;73.90;;
10890;SDS011;5498;50.928;11.598;2023-01-19T05:44:31;540.63;;;74.53;;
10890;SDS011;5498;50.928;11.598;2023-01-19T05:47:33;542.37;;;73.47;;
10890;SDS011;5498;50.928;11.598;2023-01-19T05:50:35;548.83;;;75.60;;
10890;SDS011;5498;50.928;11.598;2023-01-19T05:53:37;543.13;;;75.40;;
10890;SDS011;5498;50.928;11.598;2023-01-19T05:56:40;536.67;;;72.47;;
10890;SDS011;5498;50.928;11.598;2023-01-19T05:59:43;544.03;;;75.30;;
10890;SDS011;5498;50.928;11.598;2023-01-19T06:02:45;544.83;;;72.23;;
10890;SDS011;5498;50.928;11.598;2023-01-19T06:05:48;547.17;;;72.13;;
10890;SDS011;5498;50.928;11.598;2023-01-19T06:08:50;543.90;;;71.53;;
10890;SDS011;5498;50.928;11.598;2023-01-19T06:11:51;541.03;;;72.10;;
10890;SDS011;5498;50.928;11.598;2023-01-19T06:14:56;543.53;;;72.40;;
10890;SDS011;5498;50.928;11.598;2023-01-19T06:17:58;541.20;;;71.57;;
10890;SDS011;5498;50.928;11.598;2023-01-19T06:21:02;540.00;;;69.73;;
10890;SDS011;5498;50.928;11.598;2023-01-19T06:24:06;544.57;;;71.57;;
10890;SDS011;5498;50.928;11.598;2023-01-19T06:27:09;541.07;;;72.27;;
10890;SDS011;5498;50.928;11.598;2023-01-19T06:30:14;536.63;;;70.47;;
10890;SDS011;5498;50.928;11.598;2023-01-19T06:33:17;540.23;;;72.43;;
10890;SDS011;5498;50.928;11.598;2023-01-19T06:36:20;549.10;;;73.60;;
10890;SDS011;5498;50.928;11.598;2023-01-19T06:39:22;538.60;;;71.27;;
10890;SDS011;5498;50.928;11.598;2023-01-19T06:42:25;539.70;;;71.63;;
10890;SDS011;5498;50.928;11.598;2023-01-19T06:45:28;542.37;;;73.60;;
10890;SDS011;5498;50.928;11.598;2023-01-19T06:48:29;538.13;;;72.90;;
10890;SDS011;5498;50.928;11.598;2023-01-19T06:51:31;537.57;;;72.53;;
10890;SDS011;5498;50.928;11.598;2023-01-19T06:54:33;538.60;;;72.53;;
10890;SDS011;5498;50.928;11.598;2023-01-19T06:57:36;536.93;;;72.10;;
10890;SDS011;5498;50.928;11.598;2023-01-19T07:00:40;538.37;;;73.30;;
10890;SDS011;5498;50.928;11.598;2023-01-19T07:03:42;537.83;;;72.93;;
10890;SDS011;5498;50.928;11.598;2023-01-19T07:06:45;535.17;;;72.03;;
10890;SDS011;5498;50.928;11.598;2023-01-19T07:09:46;539.90;;;72.53;;
10890;SDS011;5498;50.928;11.598;2023-01-19T07:12:48;534.50;;;70.30;;
10890;SDS011;5498;50.928;11.598;2023-01-19T07:15:51;536.07;;;73.00;;
10890;SDS011;5498;50.928;11.598;2023-01-19T07:18:53;536.77;;;72.03;;
10890;SDS011;5498;50.928;11.598;2023-01-19T07:21:56;531.77;;;72.33;;
10890;SDS011;5498;50.928;11.598;2023-01-19T07:24:58;534.97;;;70.97;;
10890;SDS011;5498;50.928;11.598;2023-01-19T07:28:00;532.43;;;71.30;;
10890;SDS011;5498;50.928;11.598;2023-01-19T07:31:04;533.70;;;70.73;;
10890;SDS011;5498;50.928;11.598;2023-01-19T07:34:06;544.20;;;73.27;;
10890;SDS011;5498;50.928;11.598;2023-01-19T07:37:08;532.03;;;69.93;;
10890;SDS011;5498;50.928;11.598;2023-01-19T07:40:10;528.07;;;69.93;;
10890;SDS011;5498;50.928;11.598;2023-01-19T07:43:13;533.13;;;69.87;;
10890;SDS011;5498;50.928;11.598;2023-01-19T07:46:17;530.53;;;72.10;;
10890;SDS011;5498;50.928;11.598;2023-01-19T07:49:19;530.00;;;73.20;;
10890;SDS011;5498;50.928;11.598;2023-01-19T07:52:20;531.17;;;70.93;;
10890;SDS011;5498;50.928;11.598;2023-01-19T07:55:23;530.27;;;71.20;;
10890;SDS011;5498;50.928;11.598;2023-01-19T07:58:24;532.43;;;71.73;;
10890;SDS011;5498;50.928;11.598;2023-01-19T08:01:28;530.13;;;70.10;;
10890;SDS011;5498;50.928;11.598;2023-01-19T08:04:30;529.73;;;70.83;;
10890;SDS011;5498;50.928;11.598;2023-01-19T08:07:32;526.07;;;69.57;;
10890;SDS011;5498;50.928;11.598;2023-01-19T08:10:34;522.83;;;69.70;;
10890;SDS011;5498;50.928;11.598;2023-01-19T08:13:35;528.80;;;70.50;;
10890;SDS011;5498;50.928;11.598;2023-01-19T08:16:39;524.83;;;69.27;;
10890;SDS011;5498;50.928;11.598;2023-01-19T08:19:41;528.53;;;69.90;;
10890;SDS011;5498;50.928;11.598;2023-01-19T08:22:43;527.00;;;69.30;;
10890;SDS011;5498;50.928;11.598;2023-01-19T08:25:47;528.53;;;68.80;;
10890;SDS011;5498;50.928;11.598;2023-01-19T08:28:49;527.33;;;70.00;;
10890;SDS011;5498;50.928;11.598;2023-01-19T08:31:52;529.33;;;69.63;;
10890;SDS011;5498;50.928;11.598;2023-01-19T08:34:57;527.60;;;71.07;;
10890;SDS011;5498;50.928;11.598;2023-01-19T08:37:59;523.50;;;71.57;;
10890;SDS011;5498;50.928;11.598;2023-01-19T08:41:01;530.53;;;70.43;;
10890;SDS011;5498;50.928;11.598;2023-01-19T08:44:03;530.80;;;70.63;;
10890;SDS011;5498;50.928;11.598;2023-01-19T08:47:06;534.53;;;71.57;;
10890;SDS011;5498;50.928;11.598;2023-01-19T08:50:09;534.67;;;72.73;;
10890;SDS011;5498;50.928;11.598;2023-01-19T08:53:11;533.97;;;73.43;;
10890;SDS011;5498;50.928;11.598;2023-01-19T08:56:13;532.23;;;73.83;;
10890;SDS011;5498;50.928;11.598;2023-01-19T08:59:15;532.97;;;72.67;;
10890;SDS011;5498;50.928;11.598;2023-01-19T09:02:19;532.00;;;72.70;;
10890;SDS011;5498;50.928;11.598;2023-01-19T09:05:21;527.20;;;73.50;;
10890;SDS011;5498;50.928;11.598;2023-01-19T09:08:22;535.90;;;76.23;;
10890;SDS011;5498;50.928;11.598;2023-01-19T09:11:24;535.23;;;74.37;;
10890;SDS011;5498;50.928;11.598;2023-01-19T09:14:27;539.43;;;75.57;;
10890;SDS011;5498;50.928;11.598;2023-01-19T09:17:30;537.63;;;75.40;;
10890;SDS011;5498;50.928;11.598;2023-01-19T09:20:32;540.97;;;76.30;;
10890;SDS011;5498;50.928;11.598;2023-01-19T09:23:35;543.03;;;77.70;;
10890;SDS011;5498;50.928;11.598;2023-01-19T09:26:37;542.20;;;77.53;;
10890;SDS011;5498;50.928;11.598;2023-01-19T09:29:40;544.17;;;78.87;;
10890;SDS011;5498;50.928;11.598;2023-01-19T09:32:44;546.93;;;77.87;;
10890;SDS011;5498;50.928;11.598;2023-01-19T09:35:46;546.13;;;80.97;;
10890;SDS011;5498;50.928;11.598;2023-01-19T09:38:51;547.07;;;79.43;;
10890;SDS011;5498;50.928;11.598;2023-01-19T09:41:55;546.20;;;80.13;;
10890;SDS011;5498;50.928;11.598;2023-01-19T09:45:05;547.50;;;80.33;;
10890;SDS011;5498;50.928;11.598;2023-01-19T09:48:21;543.50;;;78.03;;
10890;SDS011;5498;50.928;11.598;2023-01-19T09:51:32;546.83;;;76.73;;
10890;SDS011;5498;50.928;11.598;2023-01-19T09:54:38;547.13;;;79.27;;
10890;SDS011;5498;50.928;11.598;2023-01-19T09:57:46;544.67;;;78.77;;
10890;SDS011;5498;50.928;11.598;2023-01-19T10:00:51;539.63;;;78.23;;
10890;SDS011;5498;50.928;11.598;2023-01-19T10:04:07;544.33;;;78.97;;
10890;SDS011;5498;50.928;11.598;2023-01-19T10:07:31;543.33;;;78.50;;
10890;SDS011;5498;50.928;11.598;2023-01-19T10:10:52;543.23;;;80.27;;
10890;SDS011;5498;50.928;11.598;2023-01-19T10:13:56;540.57;;;83.37;;
10890;SDS011;5498;50.928;11.598;2023-01-19T10:17:00;542.50;;;81.57;;
10890;SDS011;5498;50.928;11.598;2023-01-19T10:23:33;541.20;;;84.50;;
10890;SDS011;5498;50.928;11.598;2023-01-19T10:26:41;540.13;;;83.03;;
10890;SDS011;5498;50.928;11.598;2023-01-19T10:29:46;536.63;;;81.43;;
10890;SDS011;5498;50.928;11.598;2023-01-19T10:32:49;545.33;;;88.30;;
10890;SDS011;5498;50.928;11.598;2023-01-19T10:35:53;541.73;;;86.47;;
10890;SDS011;5498;50.928;11.598;2023-01-19T10:38:55;542.43;;;83.50;;
10890;SDS011;5498;50.928;11.598;2023-01-19T10:42:02;541.13;;;88.40;;
10890;SDS011;5498;50.928;11.598;2023-01-19T10:45:08;541.23;;;87.27;;
10890;SDS011;5498;50.928;11.598;2023-01-19T10:48:16;539.33;;;89.00;;
10890;SDS011;5498;50.928;11.598;2023-01-19T10:51:19;544.93;;;89.53;;
10890;SDS011;5498;50.928;11.598;2023-01-19T10:54:22;543.10;;;93.07;;
10890;SDS011;5498;50.928;11.598;2023-01-19T10:57:27;542.03;;;89.20;;
10890;SDS011;5498;50.928;11.598;2023-01-19T11:00:33;539.37;;;89.57;;
10890;SDS011;5498;50.928;11.598;2023-01-19T11:03:37;539.43;;;85.90;;
10890;SDS011;5498;50.928;11.598;2023-01-19T11:06:40;540.07;;;88.03;;
10890;SDS011;5498;50.928;11.598;2023-01-19T11:09:42;538.60;;;88.37;;
10890;SDS011;5498;50.928;11.598;2023-01-19T11:12:44;542.40;;;91.03;;
10890;SDS011;5498;50.928;11.598;2023-01-19T11:15:57;550.43;;;94.30;;
10890;SDS011;5498;50.928;11.598;2023-01-19T11:19:04;548.80;;;97.07;;
10890;SDS011;5498;50.928;11.598;2023-01-19T11:22:20;551.57;;;99.87;;
10890;SDS011;5498;50.928;11.598;2023-01-19T11:25:30;547.40;;;90.27;;
10890;SDS011;5498;50.928;11.598;2023-01-19T11:28:34;548.17;;;99.83;;
10890;SDS011;5498;50.928;11.598;2023-01-19T11:31:40;549.17;;;97.83;;
10890;SDS011;5498;50.928;11.598;2023-01-19T11:34:42;554.10;;;103.63;;
10890;SDS011;5498;50.928;11.598;2023-01-19T11:37:46;549.83;;;105.80;;
10890;SDS011;5498;50.928;11.598;2023-01-19T11:40:50;551.93;;;102.20;;
10890;SDS011;5498;50.928;11.598;2023-01-19T11:43:55;548.17;;;99.93;;
10890;SDS011;5498;50.928;11.598;2023-01-19T11:47:02;550.57;;;104.37;;
10890;SDS011;5498;50.928;11.598;2023-01-19T11:50:11;553.50;;;106.60;;
10890;SDS011;5498;50.928;11.598;2023-01-19T11:53:24;552.00;;;106.17;;
10890;SDS011;5498;50.928;11.598;2023-01-19T11:56:28;541.77;;;92.80;;
10890;SDS011;5498;50.928;11.598;2023-01-19T11:59:30;548.67;;;100.80;;
10890;SDS011;5498;50.928;11.598;2023-01-19T12:02:36;548.80;;;99.43;;
10890;SDS011;5498;50.928;11.598;2023-01-19T12:05:44;547.90;;;100.50;;
10890;SDS011;5498;50.928;11.598;2023-01-19T12:08:52;546.60;;;94.93;;
10890;SDS011;5498;50.928;11.598;2023-01-19T12:11:57;548.53;;;99.40;;
10890;SDS011;5498;50.928;11.598;2023-01-19T12:15:04;553.30;;;106.43;;
10890;SDS011;5498;50.928;11.598;2023-01-19T12:18:12;554.20;;;106.77;;
10890;SDS011;5498;50.928;11.598;2023-01-19T12:21:19;554.80;;;111.23;;
10890;SDS011;5498;50.928;11.598;2023-01-19T12:24:25;555.80;;;109.00;;
10890;SDS011;5498;50.928;11.598;2023-01-19T12:27:36;554.27;;;105.60;;
10890;SDS011;5498;50.928;11.598;2023-01-19T12:30:47;555.13;;;112.17;;
10890;SDS011;5498;50.928;11.598;2023-01-19T12:33:51;559.23;;;114.07;;
10890;SDS011;5498;50.928;11.598;2023-01-19T12:36:59;560.77;;;117.40;;
10890;SDS011;5498;50.928;11.598;2023-01-19T12:40:16;564.63;;;116.87;;
10890;SDS011;5498;50.928;11.598;2023-01-19T12:43:24;562.37;;;120.67;;
10890;SDS011;5498;50.928;11.598;2023-01-19T12:46:26;560.47;;;115.43;;
10890;SDS011;5498;50.928;11.598;2023-01-19T12:49:31;564.70;;;120.17;;
10890;SDS011;5498;50.928;11.598;2023-01-19T12:52:40;563.57;;;121.87;;
10890;SDS011;5498;50.928;11.598;2023-01-19T12:55:58;562.73;;;114.63;;
10890;SDS011;5498;50.928;11.598;2023-01-19T12:59:01;568.27;;;124.03;;
10890;SDS011;5498;50.928;11.598;2023-01-19T13:05:52;567.87;;;126.10;;
10890;SDS011;5498;50.928;11.598;2023-01-19T13:08:55;568.10;;;126.73;;
10890;SDS011;5498;50.928;11.598;2023-01-19T13:12:17;567.93;;;129.90;;
10890;SDS011;5498;50.928;11.598;2023-01-19T13:15:26;568.83;;;130.63;;
10890;SDS011;5498;50.928;11.598;2023-01-19T13:18:33;566.93;;;131.60;;
10890;SDS011;5498;50.928;11.598;2023-01-19T13:21:43;564.43;;;129.00;;
10890;SDS011;5498;50.928;11.598;2023-01-19T13:25:03;564.03;;;132.20;;
10890;SDS011;5498;50.928;11.598;2023-01-19T13:28:09;557.07;;;116.27;;
10890;SDS011;5498;50.928;11.598;2023-01-19T13:31:16;554.40;;;117.00;;
10890;SDS011;5498;50.928;11.598;2023-01-19T13:34:19;555.30;;;113.20;;
10890;SDS011;5498;50.928;11.598;2023-01-19T13:37:24;555.47;;;116.20;;
10890;SDS011;5498;50.928;11.598;2023-01-19T13:40:32;549.40;;;108.33;;
10890;SDS011;5498;50.928;11.598;2023-01-19T13:43:39;554.93;;;116.03;;
10890;SDS011;5498;50.928;11.598;2023-01-19T13:46:42;554.43;;;114.50;;
10890;SDS011;5498;50.928;11.598;2023-01-19T13:49:45;551.87;;;111.80;;
10890;SDS011;5498;50.928;11.598;2023-01-19T13:52:51;555.27;;;113.70;;
10890;SDS011;5498;50.928;11.598;2023-01-19T13:56:07;555.63;;;116.30;;
10890;SDS011;5498;50.928;11.598;2023-01-19T13:59:18;560.47;;;120.07;;
10890;SDS011;5498;50.928;11.598;2023-01-19T14:02:21;552.80;;;113.40;;
10890;SDS011;5498;50.928;11.598;2023-01-19T14:05:23;549.07;;;108.20;;
10890;SDS011;5498;50.928;11.598;2023-01-19T14:08:28;554.90;;;115.97;;
10890;SDS011;5498;50.928;11.598;2023-01-19T14:11:33;558.23;;;121.60;;
10890;SDS011;5498;50.928;11.598;2023-01-19T14:14:36;554.17;;;112.60;;
10890;SDS011;5498;50.928;11.598;2023-01-19T14:17:39;557.07;;;117.27;;
10890;SDS011;5498;50.928;11.598;2023-01-19T14:20:50;552.43;;;110.53;;
10890;SDS011;5498;50.928;11.598;2023-01-19T14:24:04;555.00;;;114.70;;
10890;SDS011;5498;50.928;11.598;2023-01-19T14:27:09;554.37;;;110.30;;
10890;SDS011;5498;50.928;11.598;2023-01-19T14:30:24;555.87;;;116.27;;
10890;SDS011;5498;50.928;11.598;2023-01-19T14:33:32;558.03;;;116.73;;
10890;SDS011;5498;50.928;11.598;2023-01-19T14:36:36;555.20;;;112.20;;
10890;SDS011;5498;50.928;11.598;2023-01-19T14:39:42;555.23;;;114.67;;
10890;SDS011;5498;50.928;11.598;2023-01-19T14:42:49;555.90;;;115.80;;
10890;SDS011;5498;50.928;11.598;2023-01-19T14:45:55;556.10;;;111.07;;
10890;SDS011;5498;50.928;11.598;2023-01-19T14:49:02;556.67;;;120.00;;
10890;SDS011;5498;50.928;11.598;2023-01-19T14:52:06;557.23;;;119.10;;
10890;SDS011;5498;50.928;11.598;2023-01-19T14:55:21;558.80;;;119.03;;
10890;SDS011;5498;50.928;11.598;2023-01-19T14:58:26;557.40;;;107.27;;
10890;SDS011;5498;50.928;11.598;2023-01-19T15:01:33;560.40;;;127.33;;
10890;SDS011;5498;50.928;11.598;2023-01-19T15:04:35;552.63;;;109.73;;
10890;SDS011;5498;50.928;11.598;2023-01-19T15:07:37;556.47;;;112.40;;
10890;SDS011;5498;50.928;11.598;2023-01-19T15:10:42;554.43;;;111.27;;
10890;SDS011;5498;50.928;11.598;2023-01-19T15:13:45;553.33;;;111.10;;
10890;SDS011;5498;50.928;11.598;2023-01-19T15:16:49;559.27;;;119.80;;
10890;SDS011;5498;50.928;11.598;2023-01-19T15:19:51;556.70;;;114.97;;
10890;SDS011;5498;50.928;11.598;2023-01-19T15:22:54;554.33;;;115.10;;
10890;SDS011;5498;50.928;11.598;2023-01-19T15:25:57;554.37;;;110.60;;
10890;SDS011;5498;50.928;11.598;2023-01-19T15:29:01;559.40;;;114.87;;
10890;SDS011;5498;50.928;11.598;2023-01-19T15:32:07;557.27;;;120.90;;
10890;SDS011;5498;50.928;11.598;2023-01-19T15:35:13;551.13;;;107.10;;
10890;SDS011;5498;50.928;11.598;2023-01-19T15:38:17;551.63;;;110.03;;
10890;SDS011;5498;50.928;11.598;2023-01-19T15:41:20;551.67;;;112.10;;
10890;SDS011;5498;50.928;11.598;2023-01-19T15:44:25;554.00;;;113.17;;
10890;SDS011;5498;50.928;11.598;2023-01-19T15:47:28;551.27;;;106.80;;
10890;SDS011;5498;50.928;11.598;2023-01-19T15:50:30;546.60;;;103.17;;
10890;SDS011;5498;50.928;11.598;2023-01-19T15:53:32;549.97;;;107.77;;
10890;SDS011;5498;50.928;11.598;2023-01-19T15:56:34;546.47;;;102.97;;
10890;SDS011;5498;50.928;11.598;2023-01-19T15:59:36;549.07;;;105.93;;
10890;SDS011;5498;50.928;11.598;2023-01-19T16:02:39;555.70;;;112.83;;
10890;SDS011;5498;50.928;11.598;2023-01-19T16:05:41;554.23;;;109.87;;
10890;SDS011;5498;50.928;11.598;2023-01-19T16:08:43;551.60;;;110.67;;
10890;SDS011;5498;50.928;11.598;2023-01-19T16:11:45;546.43;;;106.80;;
10890;SDS011;5498;50.928;11.598;2023-01-19T16:14:47;550.40;;;112.20;;
10890;SDS011;5498;50.928;11.598;2023-01-19T16:17:50;547.00;;;110.47;;
10890;SDS011;5498;50.928;11.598;2023-01-19T16:20:52;548.63;;;111.00;;
10890;SDS011;5498;50.928;11.598;2023-01-19T16:23:54;549.60;;;113.73;;
10890;SDS011;5498;50.928;11.598;2023-01-19T16:26:56;547.13;;;108.70;;
10890;SDS011;5498;50.928;11.598;2023-01-19T16:29:59;546.83;;;106.60;;
10890;SDS011;5498;50.928;11.598;2023-01-19T16:33:05;550.93;;;110.27;;
10890;SDS011;5498;50.928;11.598;2023-01-19T16:36:17;552.87;;;113.57;;
10890;SDS011;5498;50.928;11.598;2023-01-19T16:39:22;547.60;;;106.77;;
10890;SDS011;5498;50.928;11.598;2023-01-19T16:42:24;549.90;;;112.00;;
10890;SDS011;5498;50.928;11.598;2023-01-19T16:45:27;550.93;;;106.10;;
10890;SDS011;5498;50.928;11.598;2023-01-19T16:48:30;551.67;;;117.43;;
10890;SDS011;5498;50.928;11.598;2023-01-19T16:51:32;548.33;;;108.63;;
10890;SDS011;5498;50.928;11.598;2023-01-19T16:54:34;550.67;;;111.50;;
10890;SDS011;5498;50.928;11.598;2023-01-19T16:57:36;545.50;;;104.47;;
10890;SDS011;5498;50.928;11.598;2023-01-19T17:00:38;550.17;;;115.07;;
10890;SDS011;5498;50.928;11.598;2023-01-19T17:03:43;547.73;;;109.93;;
10890;SDS011;5498;50.928;11.598;2023-01-19T17:06:45;546.50;;;108.93;;
10890;SDS011;5498;50.928;11.598;2023-01-19T17:09:47;550.83;;;109.30;;
10890;SDS011;5498;50.928;11.598;2023-01-19T17:12:49;543.60;;;107.07;;
10890;SDS011;5498;50.928;11.598;2023-01-19T17:15:51;543.23;;;102.23;;
10890;SDS011;5498;50.928;11.598;2023-01-19T17:18:54;543.87;;;106.43;;
10890;SDS011;5498;50.928;11.598;2023-01-19T17:21:58;542.67;;;106.63;;
10890;SDS011;5498;50.928;11.598;2023-01-19T17:25:00;546.47;;;103.27;;
10890;SDS011;5498;50.928;11.598;2023-01-19T17:28:02;540.23;;;100.30;;
10890;SDS011;5498;50.928;11.598;2023-01-19T17:31:04;541.33;;;99.47;;
10890;SDS011;5498;50.928;11.598;2023-01-19T17:34:08;545.07;;;110.90;;
10890;SDS011;5498;50.928;11.598;2023-01-19T17:37:10;546.50;;;114.93;;
10890;SDS011;5498;50.928;11.598;2023-01-19T17:40:12;542.87;;;99.60;;
10890;SDS011;5498;50.928;11.598;2023-01-19T17:43:14;544.03;;;105.27;;